createdAt,value
2019-02-03T00:01:26.419Z,309.23
2019-02-03T00:03:55.925Z,303.43
2019-02-03T00:06:25.447Z,305.00
2019-02-03T00:08:54.965Z,321.02
2019-02-03T00:11:24.485Z,306.52
2019-02-03T00:13:54.102Z,319.80
2019-02-03T00:16:23.691Z,321.20
2019-02-03T00:18:58.119Z,321.13
2019-02-03T00:21:27.641Z,335.43
2019-02-03T00:23:57.149Z,332.12
2019-02-03T00:26:26.656Z,331.87
2019-02-03T00:28:56.153Z,326.40
2019-02-03T00:31:25.726Z,313.23
2019-02-03T00:33:55.235Z,307.37
2019-02-03T00:36:24.801Z,325.90
2019-02-03T00:38:54.452Z,313.37
2019-02-03T00:41:24.013Z,315.90
2019-02-03T00:43:53.524Z,308.98
2019-02-03T00:46:23.111Z,320.42
2019-02-03T00:48:52.888Z,316.30
2019-02-03T00:51:22.428Z,325.63
2019-02-03T00:53:52.071Z,323.32
2019-02-03T00:56:21.525Z,309.43
2019-02-03T00:58:52.144Z,315.24
2019-02-03T01:01:22.049Z,305.33
2019-02-03T01:03:51.581Z,322.98
2019-02-03T01:06:21.682Z,310.07
2019-02-03T01:08:51.259Z,307.03
2019-02-03T01:11:20.854Z,312.63
2019-02-03T01:13:50.373Z,322.37
2019-02-03T01:16:19.892Z,317.17
2019-02-03T01:18:49.417Z,345.95
2019-02-03T01:21:19.999Z,352.60
2019-02-03T01:23:49.570Z,342.15
2019-02-03T01:26:19.079Z,339.67
2019-02-03T01:28:48.857Z,357.93
2019-02-03T01:31:18.430Z,332.23
2019-02-03T01:33:47.882Z,325.05
2019-02-03T01:36:17.396Z,331.97
2019-02-03T01:38:47.038Z,322.20
2019-02-03T01:41:16.788Z,334.73
2019-02-03T01:43:46.364Z,324.27
2019-02-03T01:46:16.841Z,343.05
2019-02-03T01:48:46.336Z,343.82
2019-02-03T01:51:15.852Z,336.62
2019-02-03T01:53:45.352Z,349.40
2019-02-03T01:56:14.937Z,329.17
2019-02-03T01:58:44.485Z,323.00
2019-02-03T02:01:13.994Z,341.33
2019-02-03T02:03:43.497Z,334.55
2019-02-03T02:06:14.110Z,327.90
2019-02-03T02:08:43.971Z,328.92
2019-02-03T02:11:13.486Z,319.07
2019-02-03T02:13:42.990Z,332.67
2019-02-03T02:16:12.509Z,338.50
2019-02-03T02:18:42.077Z,342.00
2019-02-03T02:21:11.610Z,333.40
2019-02-03T02:23:42.088Z,325.15
2019-02-03T02:26:11.616Z,335.15
2019-02-03T02:28:41.125Z,344.60
2019-02-03T02:31:10.608Z,323.32
2019-02-03T02:33:40.110Z,345.12
2019-02-03T02:36:09.777Z,331.17
2019-02-03T02:38:39.288Z,330.17
2019-02-03T02:41:08.792Z,340.82
2019-02-03T02:43:38.305Z,312.20
2019-02-03T02:46:07.793Z,313.52
2019-02-03T02:48:37.314Z,314.08
2019-02-03T02:51:07.802Z,297.85
2019-02-03T02:53:37.311Z,312.38
2019-02-03T02:56:06.882Z,298.05
2019-02-03T02:58:36.457Z,279.30
2019-02-03T03:01:05.967Z,271.07
2019-02-03T03:03:35.467Z,276.32
2019-02-03T03:06:05.361Z,291.87
2019-02-03T03:08:34.880Z,281.02
2019-02-03T03:11:04.901Z,283.30
2019-02-03T03:13:34.421Z,294.50
2019-02-03T03:16:04.346Z,272.37
2019-02-03T03:18:33.844Z,282.95
2019-02-03T03:21:03.338Z,288.27
2019-02-03T03:23:32.846Z,298.70
2019-02-03T03:26:02.340Z,285.45
2019-02-03T03:28:31.846Z,284.55
2019-02-03T03:31:01.346Z,299.93
2019-02-03T03:33:30.857Z,288.75
2019-02-03T03:36:00.439Z,290.45
2019-02-03T03:38:32.341Z,304.43
2019-02-03T03:41:01.185Z,270.97
2019-02-03T03:43:30.859Z,288.48
2019-02-03T03:46:00.386Z,276.85
2019-02-03T03:48:30.848Z,271.18
2019-02-03T03:51:00.340Z,268.27
2019-02-03T03:53:29.847Z,250.07
2019-02-03T03:55:59.622Z,256.63
2019-02-03T03:58:29.133Z,262.98
2019-02-03T04:00:58.623Z,248.95
2019-02-03T04:03:28.161Z,261.65
2019-02-03T04:05:57.668Z,248.65
2019-02-03T04:08:27.180Z,253.15
2019-02-03T04:10:56.736Z,253.85
2019-02-03T04:13:26.244Z,246.70
2019-02-03T04:15:55.735Z,251.35
2019-02-03T04:18:25.248Z,242.18
2019-02-03T04:20:54.730Z,249.77
2019-02-03T04:23:24.400Z,224.80
2019-02-03T04:25:54.882Z,232.70
2019-02-03T04:28:24.395Z,225.50
2019-02-03T04:30:53.890Z,216.80
2019-02-03T04:33:23.380Z,231.00
2019-02-03T04:35:52.876Z,231.55
2019-02-03T04:38:22.382Z,236.72
2019-02-03T04:40:51.894Z,238.57
2019-02-03T04:43:21.401Z,245.85
2019-02-03T04:45:50.971Z,238.45
2019-02-03T04:48:20.457Z,234.77
2019-02-03T04:50:50.145Z,237.60
2019-02-03T04:53:19.649Z,262.08
2019-02-03T04:55:49.152Z,260.80
2019-02-03T04:58:18.645Z,257.97
2019-02-03T05:00:48.147Z,283.90
2019-02-03T05:03:17.643Z,274.67
2019-02-03T05:05:47.144Z,257.52
2019-02-03T05:08:16.635Z,267.20
2019-02-03T05:10:46.132Z,274.35
2019-02-03T05:13:15.658Z,265.00
2019-02-03T05:15:45.187Z,261.95
2019-02-03T05:18:14.842Z,273.60
2019-02-03T05:20:44.434Z,277.90
2019-02-03T05:23:13.928Z,296.93
2019-02-03T05:25:43.431Z,277.03
2019-02-03T05:28:12.919Z,270.00
2019-02-03T05:30:42.503Z,277.23
2019-02-03T05:33:11.994Z,274.12
2019-02-03T05:35:41.582Z,262.77
2019-02-03T05:38:11.079Z,272.10
2019-02-03T05:40:40.571Z,261.60
2019-02-03T05:43:10.056Z,242.55
2019-02-03T05:45:39.633Z,238.03
2019-02-03T05:48:09.131Z,243.33
2019-02-03T05:50:38.637Z,247.82
2019-02-03T05:53:08.134Z,250.70
2019-02-03T05:55:37.626Z,262.15
2019-02-03T05:58:07.204Z,251.30
2019-02-03T06:00:39.344Z,246.45
2019-02-03T06:03:08.841Z,253.75
2019-02-03T06:05:38.422Z,239.40
2019-02-03T06:08:07.981Z,253.90
2019-02-03T06:10:37.485Z,248.95
2019-02-03T06:13:07.068Z,245.33
2019-02-03T06:15:36.589Z,236.75
2019-02-03T06:18:06.150Z,244.37
2019-02-03T06:20:35.649Z,223.40
2019-02-03T06:23:05.209Z,243.90
2019-02-03T06:25:36.066Z,232.90
2019-02-03T06:28:05.574Z,220.80
2019-02-03T06:31:15.216Z,228.65
2019-02-03T06:33:45.944Z,217.75
2019-02-03T06:36:16.172Z,212.45
2019-02-03T06:38:45.814Z,207.10
2019-02-03T06:41:15.323Z,210.57
2019-02-03T06:43:44.832Z,203.92
2019-02-03T06:46:32.397Z,207.12
2019-02-03T06:49:04.751Z,200.10
2019-02-03T06:51:34.258Z,186.60
2019-02-03T06:54:03.939Z,195.90
2019-02-03T06:56:33.425Z,189.10
2019-02-03T06:59:02.925Z,182.90
2019-02-03T07:01:32.442Z,183.60
2019-02-03T07:04:01.941Z,182.47
2019-02-03T07:06:31.450Z,171.37
2019-02-03T07:09:00.954Z,175.38
2019-02-03T07:11:31.743Z,173.43
2019-02-03T07:14:01.304Z,173.97
2019-02-03T07:16:40.516Z,172.60
2019-02-03T07:19:01.998Z,170.12
2019-02-03T07:21:31.843Z,151.60
2019-02-03T07:24:01.431Z,153.53
2019-02-03T07:26:30.923Z,158.85
2019-02-03T07:29:00.424Z,147.40
2019-02-03T07:31:29.946Z,143.55
2019-02-03T07:33:59.467Z,141.97
2019-02-03T07:36:28.977Z,134.32
2019-02-03T07:38:58.497Z,137.70
2019-02-03T07:41:27.984Z,127.78
2019-02-03T07:43:57.499Z,124.50
2019-02-03T07:46:26.987Z,120.90
2019-02-03T07:48:56.574Z,132.37
2019-02-03T07:51:26.121Z,128.20
2019-02-03T07:54:07.738Z,128.07
2019-02-03T07:56:28.020Z,119.10
2019-02-03T07:58:57.531Z,120.10
2019-02-03T08:01:27.421Z,112.08
2019-02-03T08:03:57.016Z,117.33
2019-02-03T08:06:26.498Z,125.90
2019-02-03T08:08:56.013Z,144.20
2019-02-03T08:11:25.586Z,135.20
2019-02-03T08:13:55.105Z,130.97
2019-02-03T08:16:24.759Z,119.80
2019-02-03T08:18:54.378Z,120.07
2019-02-03T08:21:23.975Z,122.02
2019-02-03T08:23:54.377Z,117.25
2019-02-03T08:26:23.886Z,116.82
2019-02-03T08:28:53.766Z,119.30
2019-02-03T08:31:23.264Z,123.25
2019-02-03T08:33:52.844Z,119.23
2019-02-03T08:36:22.488Z,115.57
2019-02-03T08:38:52.044Z,121.90
2019-02-03T08:41:21.559Z,112.17
2019-02-03T08:43:51.264Z,110.60
2019-02-03T08:46:21.620Z,106.53
2019-02-03T08:48:51.913Z,106.34
2019-02-03T08:51:21.992Z,105.55
2019-02-03T08:53:52.020Z,102.50
2019-02-03T08:56:21.895Z,118.10
2019-02-03T08:58:51.406Z,107.00
2019-02-03T09:01:20.963Z,101.30
2019-02-03T09:03:50.494Z,104.80
2019-02-03T09:06:20.087Z,102.93
2019-02-03T09:08:49.703Z,104.67
2019-02-03T09:11:19.290Z,99.67
2019-02-03T09:13:48.814Z,98.30
2019-02-03T09:16:18.341Z,97.00
2019-02-03T09:18:47.856Z,91.00
2019-02-03T09:21:17.409Z,93.33
2019-02-03T09:23:47.313Z,96.63
2019-02-03T09:26:16.799Z,93.82
2019-02-03T09:28:46.298Z,93.30
2019-02-03T09:31:15.791Z,86.28
2019-02-03T09:33:45.356Z,88.73
2019-02-03T09:36:14.970Z,90.73
2019-02-03T09:38:44.492Z,85.97
2019-02-03T09:41:14.091Z,80.03
2019-02-03T09:43:43.613Z,82.05
2019-02-03T09:46:13.192Z,72.75
2019-02-03T09:48:43.416Z,85.40
2019-02-03T09:51:13.424Z,76.57
2019-02-03T09:53:42.935Z,73.23
2019-02-03T09:56:12.423Z,80.60
2019-02-03T09:58:41.960Z,79.65
2019-02-03T10:01:11.479Z,74.47
2019-02-03T10:03:41.075Z,72.17
2019-02-03T10:06:10.658Z,71.97
2019-02-03T10:08:41.093Z,63.35
2019-02-03T10:11:12.300Z,60.17
2019-02-03T10:13:42.071Z,54.83
2019-02-03T10:16:11.561Z,59.86
2019-02-03T10:18:41.435Z,55.97
2019-02-03T10:21:11.791Z,62.60
2019-02-03T10:23:41.295Z,56.83
2019-02-03T10:26:10.914Z,55.17
2019-02-03T10:28:40.400Z,54.88
2019-02-03T10:31:09.970Z,52.17
2019-02-03T10:33:39.518Z,53.17
2019-02-03T10:36:09.020Z,54.50
2019-02-03T10:38:38.524Z,50.63
2019-02-03T10:41:08.066Z,48.87
2019-02-03T10:43:37.568Z,46.60
2019-02-03T10:46:07.430Z,45.35
2019-02-03T10:48:37.169Z,45.70
2019-02-03T10:51:06.682Z,46.37
2019-02-03T10:53:36.273Z,41.00
2019-02-03T10:56:06.966Z,43.53
2019-02-03T10:58:38.956Z,35.85
2019-02-03T11:01:09.514Z,38.73
2019-02-03T11:03:39.090Z,37.57
2019-02-03T11:06:08.691Z,37.60
2019-02-03T11:08:38.220Z,36.13
2019-02-03T11:11:07.811Z,33.98
2019-02-03T11:13:37.420Z,34.55
2019-02-03T11:16:07.037Z,35.68
2019-02-03T11:18:36.551Z,35.78
2019-02-03T11:21:06.064Z,30.62
2019-02-03T11:23:36.366Z,31.25
2019-02-03T11:26:05.972Z,31.30
2019-02-03T11:28:35.558Z,27.82
2019-02-03T11:31:05.492Z,27.20
2019-02-03T11:33:35.056Z,35.78
2019-02-03T11:36:04.998Z,27.35
2019-02-03T11:38:34.483Z,27.32
2019-02-03T11:41:04.772Z,27.90
2019-02-03T11:43:34.436Z,26.87
2019-02-03T11:46:03.947Z,29.42
2019-02-03T11:48:33.473Z,22.27
2019-02-03T11:51:05.901Z,21.50
2019-02-03T11:53:35.448Z,22.17
2019-02-03T11:56:06.996Z,22.07
2019-02-03T11:58:36.515Z,18.63
2019-02-03T12:01:06.480Z,21.40
2019-02-03T12:03:39.148Z,18.52
2019-02-03T12:06:08.744Z,19.60
2019-02-03T12:08:38.373Z,19.60
2019-02-03T12:11:07.941Z,17.27
2019-02-03T12:13:37.550Z,17.87
2019-02-03T12:16:07.125Z,14.83
2019-02-03T12:18:36.646Z,16.00
2019-02-03T12:21:06.185Z,14.55
2019-02-03T12:23:36.055Z,14.83
2019-02-03T12:26:06.954Z,13.85
2019-02-03T12:28:36.634Z,15.53
2019-02-03T12:31:07.214Z,16.05
2019-02-03T12:33:36.773Z,14.75
2019-02-03T12:36:06.562Z,18.13
2019-02-03T12:38:36.056Z,12.87
2019-02-03T12:41:05.608Z,12.55
2019-02-03T12:43:35.225Z,12.83
2019-02-03T12:46:05.101Z,11.40
2019-02-03T12:48:35.223Z,11.93
2019-02-03T12:51:04.845Z,12.00
2019-02-03T12:53:34.386Z,19.20
2019-02-03T12:56:04.030Z,14.45
2019-02-03T12:58:34.540Z,17.10
2019-02-03T13:01:04.348Z,11.95
2019-02-03T13:03:34.210Z,13.50
2019-02-03T13:06:03.881Z,12.13
2019-02-03T13:08:33.358Z,15.20
2019-02-03T13:11:02.842Z,12.33
2019-02-03T13:13:32.447Z,14.30
2019-02-03T13:16:02.410Z,13.43
2019-02-03T13:18:31.951Z,11.80
2019-02-03T13:21:01.448Z,14.60
2019-02-03T13:23:45.055Z,19.70
2019-02-03T13:26:14.669Z,15.00
2019-02-03T13:28:44.328Z,13.00
2019-02-03T13:31:13.838Z,13.58
2019-02-03T13:33:43.540Z,13.08
2019-02-03T13:36:13.010Z,13.48
2019-02-03T13:38:42.512Z,11.30
2019-02-03T13:41:12.114Z,11.80
2019-02-03T13:43:42.377Z,12.07
2019-02-03T13:46:12.119Z,16.17
2019-02-03T13:48:41.770Z,15.50
2019-02-03T13:51:11.301Z,10.63
2019-02-03T13:53:41.124Z,11.68
2019-02-03T13:56:10.778Z,10.35
2019-02-03T13:58:40.374Z,12.20
2019-02-03T14:01:09.927Z,12.68
2019-02-03T14:03:39.423Z,17.35
2019-02-03T14:06:10.301Z,13.77
2019-02-03T14:08:39.891Z,12.77
2019-02-03T14:11:09.411Z,9.60
2019-02-03T14:13:39.817Z,10.93
2019-02-03T14:16:09.608Z,12.37
2019-02-03T14:18:39.446Z,10.15
2019-02-03T14:21:09.108Z,10.90
2019-02-03T14:23:38.615Z,10.80
2019-02-03T14:26:08.226Z,17.80
2019-02-03T14:28:37.754Z,13.27
2019-02-03T14:31:07.358Z,13.38
2019-02-03T14:33:36.965Z,16.80
2019-02-03T14:36:06.567Z,12.90
2019-02-03T14:38:36.071Z,18.10
2019-02-03T14:41:05.640Z,17.90
2019-02-03T14:43:35.158Z,14.70
2019-02-03T14:46:05.082Z,13.50
2019-02-03T14:48:34.624Z,15.77
2019-02-03T14:51:04.358Z,17.03
2019-02-03T14:53:33.859Z,15.90
2019-02-03T14:56:03.394Z,20.07
2019-02-03T14:58:32.968Z,11.13
2019-02-03T15:01:02.538Z,11.18
2019-02-03T15:03:32.071Z,17.05
2019-02-03T15:06:01.687Z,12.88
2019-02-03T15:08:31.209Z,13.08
2019-02-03T15:11:01.804Z,11.28
2019-02-03T15:13:31.410Z,13.15
2019-02-03T15:16:01.917Z,15.43
2019-02-03T15:18:31.493Z,11.33
2019-02-03T15:21:01.110Z,8.60
2019-02-03T15:23:30.615Z,12.50
2019-02-03T15:26:00.365Z,9.97
2019-02-03T15:28:29.933Z,15.23
2019-02-03T15:30:59.449Z,12.80
2019-02-03T15:33:28.962Z,11.97
2019-02-03T15:35:58.510Z,14.28
2019-02-03T15:38:28.302Z,13.00
2019-02-03T15:40:57.814Z,10.53
2019-02-03T15:43:27.423Z,17.33
2019-02-03T15:45:56.962Z,14.10
2019-02-03T15:48:26.462Z,11.60
2019-02-03T15:50:56.054Z,9.20
2019-02-03T15:53:25.646Z,13.53
2019-02-03T15:55:55.226Z,11.95
2019-02-03T15:58:24.772Z,11.30
2019-02-03T16:00:54.363Z,14.23
2019-02-03T16:03:23.935Z,12.80
2019-02-03T16:05:53.841Z,10.95
2019-02-03T16:08:23.329Z,10.60
2019-02-03T16:10:53.886Z,10.02
2019-02-03T16:13:23.385Z,11.53
2019-02-03T16:15:52.886Z,12.63
2019-02-03T16:18:22.419Z,13.43
2019-02-03T16:20:51.953Z,10.88
2019-02-03T16:23:21.536Z,10.30
2019-02-03T16:25:51.053Z,11.37
2019-02-03T16:28:20.868Z,15.33
2019-02-03T16:30:50.363Z,12.63
2019-02-03T16:33:19.867Z,11.48
2019-02-03T16:35:49.451Z,10.83
2019-02-03T16:38:22.962Z,14.07
2019-02-03T16:40:50.162Z,12.43
2019-02-03T16:43:20.192Z,11.80
2019-02-03T16:45:49.766Z,14.38
2019-02-03T16:48:19.256Z,12.80
2019-02-03T16:50:48.819Z,11.60
2019-02-03T16:53:19.330Z,13.13
2019-02-03T16:55:48.979Z,13.10
2019-02-03T16:58:18.496Z,11.50
2019-02-03T17:00:48.300Z,10.85
2019-02-03T17:03:17.866Z,9.65
2019-02-03T17:05:47.657Z,10.20
2019-02-03T17:08:17.243Z,14.93
2019-02-03T17:10:46.735Z,13.00
2019-02-03T17:13:17.314Z,14.27
2019-02-03T17:15:55.587Z,12.73
2019-02-03T17:18:25.152Z,11.40
2019-02-03T17:21:01.786Z,16.00
2019-02-03T17:23:25.956Z,9.23
2019-02-03T17:25:59.646Z,10.43
2019-02-03T17:28:29.237Z,13.17
2019-02-03T17:30:58.750Z,8.15
2019-02-03T17:33:28.374Z,10.75
2019-02-03T17:35:58.007Z,9.15
2019-02-03T17:38:27.554Z,13.10
2019-02-03T17:40:57.086Z,16.02
2019-02-03T17:43:26.575Z,15.93
2019-02-03T17:45:56.098Z,9.80
2019-02-03T17:48:25.578Z,11.10
2019-02-03T17:50:55.107Z,10.98
2019-02-03T17:53:24.975Z,10.53
2019-02-03T17:55:54.477Z,11.88
2019-02-03T17:58:23.998Z,8.33
2019-02-03T18:00:59.581Z,10.23
2019-02-03T18:03:29.122Z,9.83
2019-02-03T18:05:59.020Z,13.00
2019-02-03T18:08:28.644Z,15.37
2019-02-03T18:10:59.311Z,10.55
2019-02-03T18:13:28.882Z,10.90
2019-02-03T18:15:58.433Z,10.10
2019-02-03T18:18:27.967Z,14.80
2019-02-03T18:20:57.464Z,11.60
2019-02-03T18:23:26.970Z,11.97
2019-02-03T18:25:56.543Z,13.37
2019-02-03T18:28:26.039Z,18.43
2019-02-03T18:30:55.603Z,16.90
2019-02-03T18:33:25.534Z,17.25
2019-02-03T18:35:55.141Z,13.10
2019-02-03T18:38:24.705Z,16.07
2019-02-03T18:40:54.222Z,12.28
2019-02-03T18:43:23.705Z,13.70
2019-02-03T18:45:53.194Z,14.30
2019-02-03T18:48:22.706Z,15.00
2019-02-03T18:50:52.322Z,12.60
2019-02-03T18:53:22.046Z,11.33
2019-02-03T18:55:51.569Z,21.80
2019-02-03T18:58:21.174Z,29.55
2019-02-03T19:00:50.880Z,26.40
2019-02-03T19:03:20.553Z,29.23
2019-02-03T19:05:50.040Z,21.73
2019-02-03T19:08:20.658Z,23.73
2019-02-03T19:10:50.238Z,18.57
2019-02-03T19:13:19.762Z,13.15
2019-02-03T19:15:52.711Z,16.25
2019-02-03T19:18:21.587Z,19.80
2019-02-03T19:20:51.120Z,17.76
2019-02-03T19:23:20.715Z,16.37
2019-02-03T19:25:51.167Z,15.60
2019-02-03T19:28:21.709Z,17.95
2019-02-03T19:30:51.198Z,14.23
2019-02-03T19:33:20.707Z,17.27
2019-02-03T19:35:50.206Z,20.90
2019-02-03T19:38:19.725Z,30.30
2019-02-03T19:40:49.697Z,21.40
2019-02-03T19:43:19.246Z,28.63
2019-02-03T19:45:48.745Z,32.55
2019-02-03T19:48:18.250Z,26.07
2019-02-03T19:50:47.850Z,22.03
2019-02-03T19:53:17.374Z,25.50
2019-02-03T19:55:47.143Z,18.15
2019-02-03T19:58:16.649Z,21.55
2019-02-03T20:00:47.225Z,21.40
2019-02-03T20:03:16.766Z,18.02
2019-02-03T20:05:46.278Z,22.65
2019-02-03T20:08:16.224Z,21.87
2019-02-03T20:10:45.744Z,23.20
2019-02-03T20:13:15.276Z,26.35
2019-02-03T20:15:44.850Z,24.05
2019-02-03T20:18:14.383Z,32.55
2019-02-03T20:20:43.954Z,31.23
2019-02-03T20:23:13.683Z,26.30
2019-02-03T20:25:43.341Z,21.97
2019-02-03T20:28:12.860Z,16.47
2019-02-03T20:30:42.412Z,19.20
2019-02-03T20:33:12.095Z,23.32
2019-02-03T20:35:41.648Z,19.70
2019-02-03T20:38:12.398Z,23.00
2019-02-03T20:40:43.241Z,23.40
2019-02-03T20:43:12.734Z,19.20
2019-02-03T20:45:49.649Z,22.98
2019-02-03T20:48:13.775Z,20.33
2019-02-03T20:50:43.559Z,15.93
2019-02-03T20:53:13.153Z,15.93
2019-02-03T20:55:42.672Z,18.87
2019-02-03T20:58:12.183Z,19.92
2019-02-03T21:00:42.957Z,19.37
2019-02-03T21:03:12.523Z,21.93
2019-02-03T21:05:42.116Z,17.53
2019-02-03T21:08:11.710Z,18.57
2019-02-03T21:10:41.267Z,20.37
2019-02-03T21:13:11.671Z,14.27
2019-02-03T21:15:42.690Z,16.53
2019-02-03T21:18:12.575Z,15.27
2019-02-03T21:20:42.109Z,21.17
2019-02-03T21:23:11.629Z,15.90
2019-02-03T21:25:41.277Z,16.75
2019-02-03T21:28:17.644Z,14.38
2019-02-03T21:30:47.459Z,18.30
2019-02-03T21:33:16.983Z,17.53
2019-02-03T21:35:46.512Z,16.93
2019-02-03T21:38:16.155Z,15.27
2019-02-03T21:40:45.638Z,14.83
2019-02-03T21:43:15.163Z,18.47
2019-02-03T21:45:45.383Z,19.60
2019-02-03T21:48:14.955Z,16.00
2019-02-03T21:50:44.730Z,16.70
2019-02-03T21:53:14.417Z,18.30
2019-02-03T21:55:44.191Z,20.40
2019-02-03T21:58:13.940Z,13.05
2019-02-03T22:00:43.552Z,14.07
2019-02-03T22:03:13.147Z,16.83
2019-02-03T22:05:42.922Z,14.93
2019-02-03T22:08:12.591Z,15.20
2019-02-03T22:10:42.627Z,15.35
2019-02-03T22:13:12.455Z,14.00
2019-02-03T22:15:42.161Z,12.75
2019-02-03T22:18:11.864Z,16.07
2019-02-03T22:20:41.638Z,17.55
2019-02-03T22:23:11.271Z,16.85
2019-02-03T22:25:40.935Z,17.82
2019-02-03T22:28:10.840Z,16.40
2019-02-03T22:30:41.304Z,16.62
2019-02-03T22:33:11.504Z,17.70
2019-02-03T22:35:41.351Z,15.23
2019-02-03T22:38:11.471Z,13.78
2019-02-03T22:40:42.190Z,15.28
2019-02-03T22:43:12.159Z,14.30
2019-02-03T22:45:41.659Z,13.58
2019-02-03T22:48:11.230Z,16.48
2019-02-03T22:50:41.100Z,12.88
2019-02-03T22:53:10.659Z,11.10
2019-02-03T22:55:40.291Z,14.50
2019-02-03T22:58:09.783Z,16.93
2019-02-03T23:01:04.370Z,16.30
2019-02-03T23:04:04.325Z,18.67
2019-02-03T23:06:33.909Z,16.00
2019-02-03T23:09:17.592Z,13.10
2019-02-03T23:11:47.078Z,12.50
2019-02-03T23:14:16.572Z,17.67
2019-02-03T23:16:46.068Z,15.63
2019-02-03T23:19:15.825Z,17.45
2019-02-03T23:21:45.429Z,12.93
2019-02-03T23:24:14.924Z,13.60
2019-02-03T23:26:44.414Z,12.13
2019-02-03T23:29:13.898Z,14.45
2019-02-03T23:31:43.466Z,15.15
2019-02-03T23:34:12.961Z,17.92
2019-02-03T23:36:42.462Z,19.98
2019-02-03T23:39:12.840Z,18.00
2019-02-03T23:41:42.770Z,15.05
2019-02-03T23:44:12.333Z,15.15
2019-02-03T23:46:43.273Z,20.57
2019-02-03T23:49:12.773Z,19.07
2019-02-03T23:51:42.277Z,18.12
2019-02-03T23:54:11.760Z,26.93
2019-02-03T23:56:42.345Z,13.38
2019-02-03T23:59:11.847Z,14.40
